Time;durP1;ratioP1;P1;durP2;ratioP2;P2;SDS_P1;SDS_P2;PMS_P1;PMS_P2;Temp;Humidity;BMP_temperature;BMP_pressure;BME280_temperature;BME280_humidity;BME280_pressure;Samples;Min_cycle;Max_cycle;Signal;HPM_P1;HPM_P2
2021/04/02 00:01:00;;;;;;;1.60;0.88;;;;;;;8.34;59.78;101516.28;4854670;29;20034;-75
2021/04/02 00:03:37;;;;;;;3.70;1.75;;;;;;;8.27;59.32;101505.44;4849934;29;20033;-77
2021/04/02 00:06:07;;;;;;;7.30;1.90;;;;;;;8.36;59.18;101511.44;4853798;29;20061;-75
2021/04/02 00:08:33;;;;;;;5.53;1.23;;;;;;;8.43;59.06;101514.09;4854485;29;20043;-75
2021/04/02 00:11:17;;;;;;;1.98;1.20;;;;;;;8.35;58.99;101498.84;4866673;29;20030;-74
2021/04/02 00:13:45;;;;;;;3.10;0.95;;;;;;;8.34;58.35;101499.94;4851014;29;20037;-74
2021/04/02 00:16:13;;;;;;;6.88;1.00;;;;;;;8.51;59.20;101514.69;4853585;29;20026;-75
2021/04/02 00:18:39;;;;;;;1.02;0.90;;;;;;;8.58;58.24;101508.31;4855833;29;20041;-76
2021/04/02 00:21:07;;;;;;;5.75;0.80;;;;;;;8.62;58.42;101518.53;4848958;29;20054;-75
2021/04/02 00:23:35;;;;;;;3.13;0.40;;;;;;;8.49;57.27;101515.94;4851288;29;20503;-75
2021/04/02 00:26:05;;;;;;;2.20;0.98;;;;;;;8.46;58.32;101524.59;4854234;29;20054;-73
2021/04/02 00:28:31;;;;;;;0.82;0.50;;;;;;;8.34;57.82;101524.47;4865611;29;20029;-75
2021/04/02 00:31:09;;;;;;;1.58;0.60;;;;;;;8.15;58.46;101505.34;4856723;29;20038;-76
2021/04/02 00:33:55;;;;;;;2.85;0.95;;;;;;;8.16;58.38;101523.34;4860793;29;20025;-78
2021/04/02 00:36:20;;;;;;;;;;;;;;;8.10;58.17;101518.78;4847656;29;20021;-78
2021/04/02 00:38:48;;;;;;;1.20;0.73;;;;;;;8.00;59.29;101521.16;4873490;29;19920;-76
2021/04/02 00:41:20;;;;;;;0.95;0.80;;;;;;;7.96;58.96;101522.69;4870129;29;20057;-79
2021/04/02 00:43:49;;;;;;;1.05;0.40;;;;;;;7.89;58.80;101516.47;4862652;29;20081;-76
2021/04/02 00:46:21;;;;;;;2.78;0.80;;;;;;;7.75;58.81;101505.63;4861512;29;20030;-77
2021/04/02 00:49:11;;;;;;;1.52;0.57;;;;;;;7.79;59.17;101519.66;4853010;29;20045;-77
2021/04/02 00:51:49;;;;;;;;;;;;;;;;;;;;;
2021/04/02 00:54:35;;;;;;;1.75;0.70;;;;;;;7.61;59.86;101506.81;4860915;29;20085;-78
2021/04/02 00:57:20;;;;;;;1.30;0.80;;;;;;;7.66;59.64;101512.41;4869705;29;20089;-78
2021/04/02 00:59:53;;;;;;;0.50;0.50;;;;;;;7.55;59.58;101500.34;4857748;29;20037;-77
2021/04/02 01:02:21;;;;;;;1.58;0.55;;;;;;;7.54;59.58;101492.41;4849277;29;20024;-77
2021/04/02 01:04:47;;;;;;;1.77;0.88;;;;;;;7.55;59.44;101499.50;4872117;29;20056;-77
2021/04/02 01:07:13;;;;;;;2.92;0.70;;;;;;;7.59;59.87;101511.63;4860833;29;20041;-79
2021/04/02 01:09:47;;;;;;;0.82;0.60;;;;;;;7.45;59.14;101489.13;4854841;29;20488;-75
2021/04/02 01:12:13;;;;;;;1.38;1.02;;;;;;;7.56;59.08;101515.63;4859880;29;20046;-76
2021/04/02 01:14:39;;;;;;;0.50;0.50;;;;;;;7.45;59.60;101500.84;4864431;29;20037;-75
2021/04/02 01:17:05;;;;;;;0.65;0.63;;;;;;;7.52;59.49;101522.56;4868831;29;20448;-75
2021/04/02 01:19:38;;;;;;;1.15;0.68;;;;;;;7.52;59.52;101522.56;4860677;29;20450;-75
2021/04/02 01:22:12;;;;;;;2.22;1.05;;;;;;;7.53;59.51;101523.41;4855950;29;20109;-77
2021/04/02 01:25:18;;;;;;;1.15;0.75;;;;;;;7.57;59.39;101520.00;4851835;29;20064;-76
2021/04/02 01:28:02;;;;;;;1.40;0.70;;;;;;;7.57;58.90;101521.91;4857890;29;20029;-76
2021/04/02 01:30:29;;;;;;;0.77;0.68;;;;;;;7.57;59.09;101519.19;4858603;29;20041;-75
2021/04/02 01:33:00;;;;;;;2.47;0.88;;;;;;;7.61;59.23;101523.16;4857640;29;20066;-73
2021/04/02 01:35:33;;;;;;;1.00;0.90;;;;;;;7.63;59.70;101519.13;4863808;29;20054;-76
2021/04/02 01:38:01;;;;;;;5.47;0.70;;;;;;;7.64;59.36;101520.00;4841995;29;20511;-76
2021/04/02 01:40:30;;;;;;;1.00;0.55;;;;;;;7.63;59.11;101519.13;4851625;29;20046;-75
2021/04/02 01:43:00;;;;;;;1.27;0.55;;;;;;;7.61;59.22;101514.97;4833141;29;20038;-75
2021/04/02 01:45:29;;;;;;;2.35;0.55;;;;;;;7.57;59.00;101514.56;4855381;29;20045;-75
2021/04/02 01:47:57;;;;;;;0.40;0.40;;;;;;;7.53;59.34;101516.06;4850351;29;20064;-76
2021/04/02 01:50:22;;;;;;;1.88;0.80;;;;;;;7.55;58.54;101521.28;4871301;29;20033;-76
2021/04/02 01:52:49;;;;;;;3.58;1.05;;;;;;;7.49;59.47;101518.41;4854640;29;20539;-76
2021/04/02 01:55:16;;;;;;;0.60;0.60;;;;;;;7.50;59.13;101528.25;4861514;29;20114;-77
2021/04/02 01:57:45;;;;;;;1.52;0.70;;;;;;;7.54;59.42;101525.06;4855793;29;20048;-76
2021/04/02 02:00:19;;;;;;;3.60;0.70;;;;;;;7.59;59.22;101526.06;4852487;29;20029;-78
2021/04/02 02:02:45;;;;;;;0.40;0.40;;;;;;;7.65;59.43;101529.81;4836402;29;20110;-78
2021/04/02 02:05:31;;;;;;;;;;;;;;;;;;;;;
2021/04/02 02:08:00;;;;;;;0.70;0.50;;;;;;;7.66;58.87;101521.41;4857061;29;20032;-77
2021/04/02 02:10:29;;;;;;;1.27;0.88;;;;;;;7.67;59.38;101508.66;4864297;29;20039;-76
2021/04/02 02:12:57;;;;;;;1.52;0.70;;;;;;;7.74;58.66;101528.50;4860830;29;20104;-75
2021/04/02 02:15:23;;;;;;;3.35;0.70;;;;;;;7.65;58.66;101518.91;4862299;29;20396;-76
2021/04/02 02:17:55;;;;;;;0.50;0.50;;;;;;;7.60;59.35;101524.19;4858580;29;20388;-76
2021/04/02 02:20:22;;;;;;;2.28;0.88;;;;;;;7.54;58.96;101525.91;4869428;29;20033;-77
2021/04/02 02:22:56;;;;;;;1.02;0.60;;;;;;;7.49;59.29;101517.53;4858407;29;20488;-77
2021/04/02 02:25:27;;;;;;;0.57;0.55;;;;;;;7.53;59.45;101528.84;4853236;29;20048;-76
2021/04/02 02:28:00;;;;;;;1.52;0.70;;;;;;;7.46;59.44;101515.25;4847389;29;20026;-78
2021/04/02 02:30:28;;;;;;;1.55;0.35;;;;;;;7.38;58.84;101521.81;4855574;29;20025;-78
2021/04/02 02:32:55;;;;;;;0.38;0.35;;;;;;;7.25;59.61;101511.00;4870333;29;20022;-79
2021/04/02 02:35:21;;;;;;;4.25;0.50;;;;;;;7.28;59.64;101521.44;4864120;29;20052;-78
2021/04/02 02:37:47;;;;;;;0.25;0.25;;;;;;;7.15;58.95;101516.91;4857376;29;20030;-80
2021/04/02 02:40:19;;;;;;;0.43;0.43;;;;;;;7.07;59.35;101526.16;4864787;29;20130;-77
2021/04/02 02:42:45;;;;;;;0.65;0.40;;;;;;;6.93;60.12;101510.94;4863500;29;20057;-78
2021/04/02 02:45:12;;;;;;;0.43;0.43;;;;;;;6.98;59.63;101527.44;4863488;29;20102;-77
2021/04/02 02:47:41;;;;;;;0.90;0.40;;;;;;;6.94;59.69;101515.31;4868825;29;20391;-77
2021/04/02 02:50:15;;;;;;;2.90;0.60;;;;;;;6.91;60.40;101519.31;4865532;29;20033;-77
2021/04/02 02:52:41;;;;;;;0.40;0.40;;;;;;;6.88;59.89;101521.59;4858211;29;20061;-77
2021/04/02 02:55:09;;;;;;;1.02;0.35;;;;;;;6.82;60.72;101523.31;4860691;29;20044;-78
2021/04/02 02:57:36;;;;;;;0.80;0.43;;;;;;;6.83;60.49;101516.81;4863745;29;20112;-77
2021/04/02 03:00:08;;;;;;;1.02;0.65;;;;;;;6.85;60.58;101505.72;4862307;29;20033;-75
2021/04/02 03:02:35;;;;;;;1.00;0.47;;;;;;;6.81;60.90;101506.16;4852528;29;20022;-78
2021/04/02 03:05:04;;;;;;;0.93;0.60;;;;;;;6.79;60.29;101502.81;4862147;29;20053;-76
2021/04/02 03:07:32;;;;;;;4.03;1.05;;;;;;;6.84;60.39;101514.94;4850053;29;20025;-76
2021/04/02 03:10:02;;;;;;;0.98;0.88;;;;;;;6.80;60.59;101515.38;4856846;29;20057;-77
2021/04/02 03:12:30;;;;;;;4.00;0.60;;;;;;;6.72;60.43;101506.63;4855670;29;20491;-78
2021/04/02 03:14:55;;;;;;;0.50;0.50;;;;;;;6.70;60.87;101505.97;4860966;29;20083;-77
2021/04/02 03:17:22;;;;;;;1.33;0.63;;;;;;;6.68;61.63;101503.47;4857142;29;20037;-77
2021/04/02 03:19:50;;;;;;;2.40;0.35;;;;;;;6.64;61.10;101504.94;4863370;29;20030;-76
2021/04/02 03:22:18;;;;;;;1.08;0.70;;;;;;;6.62;61.23;101507.06;4857254;29;20030;-75
2021/04/02 03:24:44;;;;;;;0.50;0.50;;;;;;;6.53;60.94;101508.34;4858472;29;20040;-75
2021/04/02 03:27:11;;;;;;;0.70;0.35;;;;;;;6.47;61.62;101510.84;4854352;29;20034;-76
2021/04/02 03:29:36;;;;;;;0.50;0.45;;;;;;;6.44;61.49;101508.56;4864194;29;20556;-77
2021/04/02 03:32:18;;;;;;;3.90;1.08;;;;;;;6.39;61.71;101510.25;4857372;29;20045;-78
2021/04/02 03:34:47;;;;;;;1.75;0.70;;;;;;;6.40;61.49;101515.47;4879422;29;20033;-77
2021/04/02 03:37:13;;;;;;;0.90;0.60;;;;;;;6.35;61.75;101501.69;4861943;29;20498;-77
2021/04/02 03:39:43;;;;;;;1.85;0.70;;;;;;;6.37;62.04;101498.75;4879806;29;20045;-77
2021/04/02 03:42:11;;;;;;;0.55;0.55;;;;;;;6.46;61.46;101514.59;4859544;29;20030;-76
2021/04/02 03:44:43;;;;;;;7.25;0.70;;;;;;;6.42;61.58;101501.66;4860311;29;20041;-78
2021/04/02 03:47:20;;;;;;;2.42;0.52;;;;;;;6.41;61.71;101503.56;4857342;29;20114;-77
2021/04/02 03:49:49;;;;;;;1.70;1.27;;;;;;;6.45;61.48;101518.38;4858271;29;20030;-75
2021/04/02 03:52:40;;;;;;;0.30;0.30;;;;;;;6.44;61.75;101516.72;4841403;29;20037;-76
2021/04/02 03:55:07;;;;;;;2.15;0.70;;;;;;;6.36;61.44;101502.50;4859589;29;20132;-75
2021/04/02 03:57:36;;;;;;;0.40;0.30;;;;;;;6.33;62.00;101503.75;4872081;29;20044;-76
2021/04/02 04:00:26;;;;;;;1.17;0.80;;;;;;;6.33;62.31;101501.03;4879064;29;20036;-75
2021/04/02 04:02:53;;;;;;;1.48;0.70;;;;;;;6.34;61.91;101510.88;4856193;29;20072;-76
2021/04/02 04:05:19;;;;;;;0.38;0.20;;;;;;;6.37;61.71;101510.44;4862155;29;20063;-76
2021/04/02 04:07:52;;;;;;;1.10;0.98;;;;;;;6.29;61.72;101507.94;4850128;29;20026;-76
2021/04/02 04:10:21;;;;;;;1.05;0.50;;;;;;;6.20;62.02;101498.34;4856505;29;20036;-76
2021/04/02 04:12:55;;;;;;;0.70;0.60;;;;;;;6.23;62.14;101503.34;4841552;29;20085;-77
2021/04/02 04:15:22;;;;;;;0.65;0.65;;;;;;;6.26;62.17;101509.22;4857946;29;20040;-78
2021/04/02 04:17:50;;;;;;;0.75;0.35;;;;;;;6.22;61.95;101502.53;4862541;29;20072;-75
2021/04/02 04:20:18;;;;;;;1.08;0.40;;;;;;;6.22;61.79;101512.53;4872736;29;20557;-77
2021/04/02 04:22:46;;;;;;;0.77;0.40;;;;;;;6.24;62.13;101518.63;4856552;29;20385;-74
2021/04/02 04:25:13;;;;;;;0.52;0.40;;;;;;;6.23;62.29;101503.34;4850039;29;20154;-78
2021/04/02 04:27:42;;;;;;;0.52;0.52;;;;;;;6.34;62.34;101521.75;4830414;29;20064;-77
2021/04/02 04:30:11;;;;;;;0.45;0.30;;;;;;;6.38;62.40;101514.84;4868589;29;20037;-77
2021/04/02 04:32:39;;;;;;;0.93;0.57;;;;;;;6.46;62.52;101520.03;4874424;29;20492;-76
2021/04/02 04:35:09;;;;;;;0.57;0.38;;;;;;;6.54;61.63;101513.56;4859336;29;20395;-76
2021/04/02 04:37:35;;;;;;;2.40;0.43;;;;;;;6.56;62.16;101507.91;4860278;29;20029;-76
2021/04/02 04:40:01;;;;;;;1.48;0.60;;;;;;;6.67;61.89;101526.25;4858359;29;20561;-76
2021/04/02 04:42:28;;;;;;;1.35;0.40;;;;;;;6.74;62.03;101521.66;4825848;29;20121;-77
2021/04/02 04:44:58;;;;;;;0.75;0.25;;;;;;;6.79;62.04;101521.84;4831564;29;20074;-77
2021/04/02 04:47:32;;;;;;;0.22;0.22;;;;;;;6.81;61.86;101511.59;4835919;29;20029;-76
2021/04/02 04:49:57;;;;;;;0.43;0.30;;;;;;;6.86;61.68;101510.13;4860325;29;20033;-76
2021/04/02 04:52:26;;;;;;;0.47;0.20;;;;;;;6.90;61.70;101511.34;4853605;29;20027;-76
2021/04/02 04:54:53;;;;;;;0.40;0.35;;;;;;;6.96;61.34;101514.03;4843057;29;20123;-77
2021/04/02 04:57:20;;;;;;;0.20;0.20;;;;;;;7.01;62.02;101520.72;4845970;29;20086;-77
2021/04/02 04:59:47;;;;;;;0.30;0.28;;;;;;;7.07;61.51;101531.59;4858305;29;20101;-74
2021/04/02 05:02:16;;;;;;;0.47;0.20;;;;;;;7.07;61.77;101523.44;4858490;29;20117;-78
2021/04/02 05:04:43;;;;;;;0.55;0.30;;;;;;;7.16;61.43;101534.91;4852004;29;20457;-75
2021/04/02 05:07:10;;;;;;;0.20;0.20;;;;;;;7.19;61.01;101533.63;4855980;29;20036;-76
2021/04/02 05:09:38;;;;;;;0.75;0.32;;;;;;;7.20;60.88;101529.84;4850449;29;20028;-78
2021/04/02 05:12:07;;;;;;;0.93;0.75;;;;;;;7.19;61.00;101533.63;4850964;29;20033;-76
2021/04/02 05:14:34;;;;;;;2.92;0.40;;;;;;;7.27;60.98;101536.94;4843209;29;20029;-76
2021/04/02 05:17:00;;;;;;;0.52;0.40;;;;;;;7.31;60.80;101534.59;4867710;29;20373;-76
2021/04/02 05:19:26;;;;;;;4.43;0.40;;;;;;;7.42;60.52;101552.97;4873130;29;20029;-76
2021/04/02 05:21:51;;;;;;;0.20;0.10;;;;;;;7.44;59.90;101550.03;4874281;29;20033;-76
2021/04/02 05:24:27;;;;;;;;;;;;;;;;;;;;;
2021/04/02 05:26:54;;;;;;;1.75;0.57;;;;;;;7.41;59.91;101556.75;4856862;29;20043;-75
2021/04/02 05:29:19;;;;;;;2.20;0.55;;;;;;;7.39;59.60;101561.59;4850912;29;20029;-75
2021/04/02 05:31:45;;;;;;;3.13;0.40;;;;;;;7.32;59.32;101569.75;4875504;29;20036;-75
2021/04/02 05:34:11;;;;;;;1.75;0.45;;;;;;;7.19;58.98;101556.22;4856511;29;20033;-77
2021/04/02 05:36:36;;;;;;;1.65;0.30;;;;;;;7.02;58.51;101553.13;4875294;29;20056;-76
2021/04/02 05:39:05;;;;;;;0.90;0.45;;;;;;;6.85;59.19;101551.94;4854195;29;20025;-76
2021/04/02 05:41:43;;;;;;;1.13;0.30;;;;;;;6.72;59.30;101542.78;4860233;29;20037;-77
2021/04/02 05:44:13;;;;;;;0.82;0.50;;;;;;;6.75;59.51;101568.72;4856730;29;20029;-76
2021/04/02 05:46:51;;;;;;;1.70;0.38;;;;;;;6.61;59.43;101571.47;4871733;29;20843;-77
2021/04/02 05:49:20;;;;;;;1.10;0.40;;;;;;;6.57;59.27;101561.19;4849691;29;20041;-76
2021/04/02 05:51:47;;;;;;;1.60;0.40;;;;;;;6.64;59.27;101583.78;4841383;29;20118;-79
2021/04/02 05:54:15;;;;;;;0.20;0.20;;;;;;;6.61;59.28;101576.03;4857249;29;20497;-76
2021/04/02 05:56:44;;;;;;;0.22;0.20;;;;;;;6.56;59.20;101578.56;4839322;29;20037;-77
2021/04/02 05:59:10;;;;;;;1.60;0.77;;;;;;;6.59;59.35;101580.88;4870511;29;20394;-77
2021/04/02 06:01:36;;;;;;;0.30;0.20;;;;;;;6.61;59.55;101587.78;4856999;29;20041;-76
2021/04/02 06:04:02;;;;;;;0.88;0.38;;;;;;;6.55;59.31;101572.28;4848790;29;20033;-76
2021/04/02 06:06:27;;;;;;;0.65;0.63;;;;;;;6.65;59.70;101590.88;4852707;29;20066;-77
2021/04/02 06:08:53;;;;;;;0.38;0.38;;;;;;;6.65;59.55;101599.03;4850587;29;20021;-77
2021/04/02 06:11:29;;;;;;;0.43;0.30;;;;;;;6.62;59.31;101583.16;4870403;29;20030;-77
2021/04/02 06:13:54;;;;;;;;;;;;;;;6.76;59.48;101601.13;4858952;29;20026;-77
2021/04/02 06:16:20;;;;;;;;;;;;;;;6.80;59.42;101607.81;4863385;29;19956;-77
2021/04/02 06:18:55;;;;;;;;;;;;;;;;;;;;;
2021/04/02 06:21:27;;;;;;;1.63;0.30;;;;;;;6.76;59.24;101592.97;4863530;29;20121;-76
2021/04/02 06:24:02;;;;;;;1.85;0.50;;;;;;;6.90;59.48;101607.34;4875451;29;20050;-78
2021/04/02 06:26:28;;;;;;;2.22;0.40;;;;;;;6.95;59.34;101606.72;4848089;29;20133;-78
2021/04/02 06:28:53;;;;;;;0.77;0.52;;;;;;;7.06;58.82;101610.69;4852661;29;20465;-77
2021/04/02 06:31:30;;;;;;;0.68;0.32;;;;;;;7.08;58.39;101601.25;4876646;29;20040;-77
2021/04/02 06:33:56;;;;;;;2.25;0.25;;;;;;;7.12;57.98;101613.38;4856092;29;20033;-77
2021/04/02 06:36:24;;;;;;;0.20;0.20;;;;;;;7.07;58.27;101594.16;4858335;29;20112;-77
2021/04/02 06:39:03;;;;;;;;;;;;;;;;;;;;;
2021/04/02 06:41:41;;;;;;;;;;;;;;;;;;;;;
2021/04/02 06:44:09;;;;;;;0.40;0.40;;;;;;;7.14;58.15;101611.28;4863346;29;20021;-76
2021/04/02 06:46:59;;;;;;;1.23;0.40;;;;;;;7.24;57.62;101610.84;4862158;29;20049;-79
2021/04/02 06:49:35;;;;;;;;;;;;;;;;;;;;;
2021/04/02 06:52:04;;;;;;;2.35;0.43;;;;;;;7.36;57.87;101616.44;4864849;29;20104;-78
2021/04/02 06:54:48;;;;;;;;;;;;;;;;;;;;;
2021/04/02 06:57:33;;;;;;;2.53;0.50;;;;;;;7.61;57.74;101630.16;4870624;29;20382;-78
2021/04/02 06:59:59;;;;;;;0.93;0.25;;;;;;;7.56;57.41;101604.63;4846849;29;20030;-79
2021/04/02 07:02:58;;;;;;;3.15;0.47;;;;;;;7.50;56.98;101607.19;4852967;29;20033;-81
2021/04/02 07:05:28;;;;;;;0.85;0.38;;;;;;;7.58;57.26;101618.84;4532502;29;9612819;-79
2021/04/02 07:08:08;;;;;;;2.40;0.50;;;;;;;7.57;56.65;101619.91;4831779;29;20034;-79
2021/04/02 07:10:37;;;;;;;1.85;0.40;;;;;;;7.65;57.19;101627.81;4855303;29;20121;-80
2021/04/02 07:13:49;;;;;;;1.00;0.60;;;;;;;7.84;56.75;101639.66;4862919;29;20060;-79
2021/04/02 07:16:17;;;;;;;1.58;0.40;;;;;;;7.98;56.80;101646.69;4842997;29;20048;-77
2021/04/02 07:18:46;;;;;;;0.90;0.45;;;;;;;8.04;55.68;101645.84;4846283;29;20030;-80
2021/04/02 07:21:16;;;;;;;1.88;0.52;;;;;;;8.26;56.09;101655.53;4860786;29;20084;-79
2021/04/02 07:23:43;;;;;;;1.60;0.40;;;;;;;8.33;55.47;101642.69;4843134;29;20041;-78
2021/04/02 07:26:10;;;;;;;2.92;1.00;;;;;;;8.49;55.60;101652.25;4849251;29;20022;-79
2021/04/02 07:28:42;;;;;;;2.85;1.50;;;;;;;8.60;54.29;101653.41;4839496;29;20491;-78
2021/04/02 07:31:09;;;;;;;2.40;0.70;;;;;;;8.74;54.25;101660.44;4880972;29;20045;-78
2021/04/02 07:33:39;;;;;;;0.50;0.50;;;;;;;8.82;53.22;101662.88;4852740;29;20022;-79
2021/04/02 07:36:05;;;;;;;2.05;0.60;;;;;;;9.01;53.14;101676.53;4839695;29;20037;-73
2021/04/02 07:38:33;;;;;;;2.95;0.50;;;;;;;9.11;52.86;101673.31;4856747;29;20044;-76
2021/04/02 07:41:07;;;;;;;1.05;0.70;;;;;;;9.20;52.72;101675.53;4854592;29;20051;-77
2021/04/02 07:43:33;;;;;;;0.90;0.50;;;;;;;9.28;51.61;101670.81;4849888;29;20457;-75
2021/04/02 07:46:21;;;;;;;4.28;0.73;;;;;;;9.43;52.07;101690.38;4855695;29;20026;-76
2021/04/02 07:49:10;;;;;;;6.78;1.42;;;;;;;9.52;51.53;101688.16;4853425;29;20061;-76
2021/04/02 07:51:59;;;;;;;2.67;0.50;;;;;;;9.66;50.58;101699.78;4848991;29;20097;-76
2021/04/02 07:54:34;;;;;;;1.60;0.55;;;;;;;9.73;51.30;101695.91;4852566;29;20037;-78
2021/04/02 07:57:23;;;;;;;1.20;0.40;;;;;;;9.88;50.01;101703.69;4860985;29;20033;-78
2021/04/02 07:59:54;;;;;;;1.05;0.60;;;;;;;9.92;50.07;101702.19;4870616;29;20098;-78
2021/04/02 08:02:30;;;;;;;0.63;0.40;;;;;;;10.05;50.44;101703.06;4879079;29;20029;-78
2021/04/02 08:04:57;;;;;;;7.10;1.00;;;;;;;10.11;50.06;101691.22;4858558;29;20053;-80
2021/04/02 08:07:40;;;;;;;2.38;0.82;;;;;;;10.21;50.05;101691.50;4848326;29;20056;-82
2021/04/02 08:10:23;;;;;;;4.22;0.50;;;;;;;10.40;49.04;101711.44;4871117;29;20494;-79
2021/04/02 08:12:48;;;;;;;0.88;0.57;;;;;;;10.53;49.06;101709.53;4861773;29;20038;-78
2021/04/02 08:15:17;;;;;;;1.33;0.60;;;;;;;10.62;48.51;101695.31;4859030;29;20022;-77
2021/04/02 08:17:46;;;;;;;1.70;0.50;;;;;;;10.85;48.41;101712.84;4857890;29;20037;-80
2021/04/02 08:20:17;;;;;;;1.55;0.60;;;;;;;10.97;47.64;101704.63;4861143;29;20105;-78
2021/04/02 08:22:43;;;;;;;1.55;0.38;;;;;;;11.13;47.88;101708.56;4856452;29;20022;-82
2021/04/02 08:25:16;;;;;;;0.52;0.43;;;;;;;11.35;47.68;101717.81;4861728;29;20422;-75
2021/04/02 08:27:44;;;;;;;3.58;0.50;;;;;;;11.60;47.76;101713.97;4855418;29;20081;-76
2021/04/02 08:30:13;;;;;;;1.23;0.82;;;;;;;11.85;46.74;101723.81;4847315;29;20111;-76
2021/04/02 08:33:06;;;;;;;1.52;0.47;;;;;;;12.13;45.73;101728.50;4839154;29;20040;-77
2021/04/02 08:35:32;;;;;;;4.00;1.02;;;;;;;12.14;45.20;101713.72;4875359;29;20178;-79
2021/04/02 08:38:19;;;;;;;2.78;0.45;;;;;;;12.28;45.23;101714.25;4841888;29;20066;-78
2021/04/02 08:40:46;;;;;;;3.67;0.82;;;;;;;12.26;43.98;101721.88;4860829;29;20219;-79
2021/04/02 08:43:27;;;;;;;;;;;;;;;;;;;;;
2021/04/02 08:45:55;;;;;;;3.05;0.90;;;;;;;11.73;43.44;101698.34;4865461;29;20113;-78
2021/04/02 08:48:21;;;;;;;1.67;0.50;;;;;;;11.70;42.91;101719.66;4845597;29;20022;-79
2021/04/02 08:50:57;;;;;;;2.67;0.68;;;;;;;11.76;43.98;101714.31;4869987;29;20040;-76
2021/04/02 08:53:22;;;;;;;0.93;0.63;;;;;;;11.98;44.50;101731.78;4847728;29;20026;-79
2021/04/02 08:56:03;;;;;;;;;;;;;;;;;;;;;
2021/04/02 08:58:41;;;;;;;;;;;;;;;;;;;;;
2021/04/02 09:01:17;;;;;;;1.40;0.75;;;;;;;12.30;42.52;101723.06;4857457;29;20685;-81
2021/04/02 09:03:59;;;;;;;4.82;0.55;;;;;;;12.19;43.19;101710.22;4858246;29;20559;-78
2021/04/02 09:06:27;;;;;;;1.38;0.45;;;;;;;12.20;43.19;101715.47;4848924;29;20060;-77
2021/04/02 09:08:53;;;;;;;1.98;0.50;;;;;;;12.56;42.81;101720.78;4862899;29;20045;-77
2021/04/02 09:11:18;;;;;;;4.35;0.50;;;;;;;12.93;42.81;101728.53;4872424;29;20038;-79
2021/04/02 09:13:49;;;;;;;1.17;0.57;;;;;;;13.24;41.33;101729.00;4835850;29;20037;-79
2021/04/02 09:16:22;;;;;;;1.42;0.70;;;;;;;13.36;41.39;101727.03;4857211;29;20034;-77
2021/04/02 09:18:55;;;;;;;3.63;1.00;;;;;;;13.68;41.03;101731.00;4841517;29;20057;-79
2021/04/02 09:21:24;;;;;;;1.00;0.43;;;;;;;13.94;41.27;101726.66;4860513;29;20385;-77
2021/04/02 09:24:10;;;;;;;0.40;0.32;;;;;;;14.51;40.35;101743.78;4837505;29;20306;-78
2021/04/02 09:26:55;;;;;;;;;;;;;;;14.99;39.96;101740.09;4848683;29;20050;-78
2021/04/02 09:29:24;;;;;;;3.10;0.47;;;;;;;15.15;38.64;101738.28;4860302;29;19912;-76
2021/04/02 09:31:52;;;;;;;3.92;0.60;;;;;;;15.45;38.35;101731.31;4854149;29;20117;-77
2021/04/02 09:34:28;;;;;;;0.50;0.40;;;;;;;15.83;38.73;101737.59;4845383;29;20503;-77
2021/04/02 09:36:55;;;;;;;0.52;0.50;;;;;;;16.24;38.28;101745.19;4832289;29;20132;-78
2021/04/02 09:39:23;;;;;;;0.95;0.40;;;;;;;16.66;38.17;101737.78;4856109;29;20445;-79
2021/04/02 09:41:57;;;;;;;1.25;0.65;;;;;;;17.01;37.34;101723.19;4848141;29;20041;-77
2021/04/02 09:44:53;;;;;;;1.67;0.55;;;;;;;17.61;36.50;101737.13;4854539;29;20029;-75
2021/04/02 09:47:18;;;;;;;2.60;0.73;;;;;;;18.11;35.22;101747.47;4832198;29;20048;-72
2021/04/02 09:49:44;;;;;;;2.22;0.50;;;;;;;18.13;34.33;101742.47;4850941;29;20037;-74
2021/04/02 09:52:15;;;;;;;2.05;0.60;;;;;;;18.13;33.87;101753.53;4860182;29;20029;-74
2021/04/02 09:54:44;;;;;;;1.92;0.63;;;;;;;18.09;33.91;101735.84;4854945;29;20064;-74
2021/04/02 09:57:12;;;;;;;4.13;0.43;;;;;;;18.56;34.29;101750.22;4859862;29;20026;-72
2021/04/02 09:59:38;;;;;;;3.30;0.50;;;;;;;19.32;33.65;101743.22;4856273;29;20033;-71
2021/04/02 10:02:06;;;;;;;1.35;0.40;;;;;;;19.77;32.55;101750.50;4850616;29;20033;-73
2021/04/02 10:04:32;;;;;;;0.57;0.32;;;;;;;20.13;32.90;101742.56;4862379;29;20049;-72
2021/04/02 10:06:57;;;;;;;3.90;0.40;;;;;;;20.70;31.84;101747.31;4852910;29;20392;-71
2021/04/02 10:09:25;;;;;;;1.10;0.60;;;;;;;20.77;29.42;101752.50;4857895;29;20034;-72
2021/04/02 10:11:53;;;;;;;1.88;0.50;;;;;;;20.54;29.60;101741.13;4835315;29;20037;-73
2021/04/02 10:14:19;;;;;;;1.45;0.38;;;;;;;20.22;30.18;101751.03;4871569;29;20044;-74
2021/04/02 10:16:45;;;;;;;1.75;0.60;;;;;;;20.17;31.14;101751.13;4857306;29;20037;-73
2021/04/02 10:19:12;;;;;;;0.50;0.25;;;;;;;20.69;31.56;101732.59;4859709;29;20025;-72
2021/04/02 10:21:47;;;;;;;0.68;0.40;;;;;;;21.45;30.43;101745.44;4860711;29;20445;-77
2021/04/02 10:24:13;;;;;;;0.80;0.33;;;;;;;22.17;30.08;101740.34;4857423;29;20036;-76
2021/04/02 10:26:39;;;;;;;1.20;0.50;;;;;;;22.58;28.13;101762.53;4836856;29;20042;-72
2021/04/02 10:29:25;;;;;;;0.47;0.40;;;;;;;22.38;27.66;101747.13;4847644;29;20044;-77
2021/04/02 10:31:53;;;;;;;1.88;0.50;;;;;;;22.26;28.09;101735.69;4868248;29;20041;-77
2021/04/02 10:34:29;;;;;;;;;;;;;;;;;;;;;
2021/04/02 10:36:55;;;;;;;0.43;0.43;;;;;;;22.77;26.86;101726.09;4851440;29;20033;-75
2021/04/02 10:39:33;;;;;;;;;;;;;;;;;;;;;
2021/04/02 10:41:59;;;;;;;2.47;0.50;;;;;;;23.51;26.68;101744.25;4852387;29;20036;-74
2021/04/02 10:44:27;;;;;;;0.50;0.30;;;;;;;24.32;26.53;101755.31;4849917;29;20033;-75
2021/04/02 10:46:52;;;;;;;1.30;0.68;;;;;;;24.79;26.02;101761.09;4852342;29;20029;-78
2021/04/02 10:49:20;;;;;;;0.70;0.30;;;;;;;25.36;25.53;101759.97;4839143;29;20053;-77
2021/04/02 10:51:53;;;;;;;0.68;0.40;;;;;;;26.18;25.49;101746.91;4848407;29;20106;-74
2021/04/02 10:54:19;;;;;;;0.82;0.40;;;;;;;27.14;24.33;101749.66;4865712;29;20083;-73
2021/04/02 10:56:54;;;;;;;;;;;;;;;;;;;;;
2021/04/02 10:59:20;;;;;;;0.73;0.30;;;;;;;27.54;22.70;101748.22;4864290;29;20036;-75
2021/04/02 11:01:48;;;;;;;1.50;0.20;;;;;;;27.85;22.40;101758.84;4847995;29;20029;-76
2021/04/02 11:04:13;;;;;;;0.75;0.50;;;;;;;28.11;21.83;101748.41;4856029;29;20384;-76
2021/04/02 11:06:49;;;;;;;5.60;0.70;;;;;;;28.63;21.59;101760.84;4871640;29;20038;-74
2021/04/02 11:09:15;;;;;;;1.75;0.40;;;;;;;29.04;20.80;101755.94;4853077;29;20117;-76
2021/04/02 11:11:43;;;;;;;1.77;0.65;;;;;;;29.42;20.08;101755.38;4847006;29;20054;-76
2021/04/02 11:14:08;;;;;;;0.88;0.55;;;;;;;29.71;19.21;101761.69;4853544;29;20038;-76
2021/04/02 11:16:37;;;;;;;0.55;0.40;;;;;;;30.15;19.56;101751.47;4858713;29;20029;-77
2021/04/02 11:19:04;;;;;;;0.80;0.60;;;;;;;30.37;18.49;101750.72;4858485;29;20033;-75
2021/04/02 11:21:33;;;;;;;0.28;0.22;;;;;;;30.84;18.76;101760.19;4840305;29;20037;-74
2021/04/02 11:24:01;;;;;;;1.17;0.22;;;;;;;31.17;18.62;101746.69;4855916;29;20085;-74
2021/04/02 11:26:29;;;;;;;2.33;0.68;;;;;;;31.68;17.99;101760.47;4845956;29;20534;-72
2021/04/02 11:28:57;;;;;;;2.08;0.45;;;;;;;32.03;18.43;101753.72;4829283;29;20081;-74
2021/04/02 11:31:24;;;;;;;1.73;0.63;;;;;;;32.23;16.37;101747.97;4859841;29;20126;-74
2021/04/02 11:33:49;;;;;;;0.50;0.30;;;;;;;32.28;17.58;101751.28;4853745;29;20658;-73
2021/04/02 11:36:16;;;;;;;1.00;0.43;;;;;;;32.62;17.20;101753.28;4850638;29;20029;-73
2021/04/02 11:38:41;;;;;;;0.77;0.50;;;;;;;32.85;16.85;101756.81;4853772;29;20040;-74
2021/04/02 11:41:07;;;;;;;0.60;0.45;;;;;;;33.29;16.85;101751.63;4864072;29;20034;-73
2021/04/02 11:43:43;;;;;;;;;;;;;;;;;;;;;
2021/04/02 11:46:09;;;;;;;0.52;0.30;;;;;;;33.87;15.71;101748.03;4843975;29;20022;-73
2021/04/02 11:48:34;;;;;;;0.35;0.30;;;;;;;34.20;15.38;101754.69;4848436;29;20108;-73
2021/04/02 11:51:00;;;;;;;0.90;0.50;;;;;;;34.47;15.18;101748.75;4860596;29;20069;-74
2021/04/02 11:53:26;;;;;;;2.22;0.38;;;;;;;34.82;15.63;101749.31;4832484;29;20029;-72
2021/04/02 11:55:52;;;;;;;1.95;0.35;;;;;;;35.38;14.94;101758.31;4838485;29;20046;-73
2021/04/02 11:58:17;;;;;;;1.55;0.90;;;;;;;35.55;13.60;101763.19;4852165;29;20039;-74
2021/04/02 12:00:43;;;;;;;1.10;0.60;;;;;;;35.25;13.18;101750.16;4848712;29;20057;-73
2021/04/02 12:03:09;;;;;;;0.80;0.45;;;;;;;35.23;13.58;101758.28;4861724;29;20045;-75
2021/04/02 12:05:34;;;;;;;5.03;0.50;;;;;;;35.01;13.53;101748.91;4853098;29;20042;-73
2021/04/02 12:08:00;;;;;;;0.50;0.40;;;;;;;35.02;13.58;101752.56;4853748;29;20041;-72